KLSE

La Crosse Regional Airport

La Crosse, Wisconsin, USA
METAR KLSE 221653Z 33006KT 10SM OVC016 18/13 A3009 RMK AO2 SLP186 T01780133
Observed Flight Rules
May-22 @ 16:53 UTC (56 minutes ago) Marginal Visual Flight Rules
Wind Visibility Clouds
330° at 6 knots 10 miles
  • Overcast at 1,600' AGL
Temperatures Readings
Current 18°C / 64°F
Dewpoint 13°C / 55°F
Humidity 73%
Altimeter 30.09" Hg
Pressure 1018.6 hPa
Elevation 199
METAR KLSE 221653Z 33006KT 10SM OVC016 18/13 A3009 RMK AO2 SLP186 T01780133
Observed Flight Rules
May-22 @ 16:53 UTC
(56 minutes ago)
MVFR
Wind Visibility
330° at 6 knots 10 miles
Clouds
  • Overcast at 1,600' AGL
Temperature Dewpoint
18°C / 64°F 13°C / 55°F
Humidity Altimeter Pressure
73% 30.09" Hg 1018.6 hPa